createdAt,value
2023-09-23T00:00:51.593Z,4.93
2023-09-23T00:03:19.528Z,3.43
2023-09-23T00:05:46.734Z,3.80
2023-09-23T00:08:13.989Z,4.10
2023-09-23T00:10:41.204Z,5.30
2023-09-23T00:13:08.457Z,4.77
2023-09-23T00:15:36.558Z,4.07
2023-09-23T00:18:06.148Z,4.07
2023-09-23T00:20:34.686Z,5.80
2023-09-23T00:23:03.588Z,6.00
2023-09-23T00:25:31.034Z,5.53
2023-09-23T00:27:58.418Z,4.07
2023-09-23T00:30:27.596Z,7.13
2023-09-23T00:32:55.572Z,4.03
2023-09-23T00:35:23.027Z,7.63
2023-09-23T00:37:51.258Z,3.83
2023-09-23T00:40:25.672Z,4.37
2023-09-23T00:42:52.955Z,4.57
2023-09-23T00:45:23.408Z,3.93
2023-09-23T00:47:50.925Z,4.70
2023-09-23T00:50:21.635Z,4.20
2023-09-23T00:52:53.553Z,4.23
2023-09-23T00:55:22.367Z,4.20
2023-09-23T00:57:54.082Z,4.20
2023-09-23T01:00:29.088Z,4.10
2023-09-23T01:02:57.871Z,4.53
2023-09-23T01:05:29.868Z,4.00
2023-09-23T01:08:12.380Z,5.87
2023-09-23T01:10:41.064Z,4.13
2023-09-23T01:13:09.098Z,5.10
2023-09-23T01:15:42.562Z,4.57
2023-09-23T01:18:22.899Z,4.37
2023-09-23T01:20:52.528Z,4.03
2023-09-23T01:23:19.819Z,4.30
2023-09-23T01:29:34.600Z,6.20
2023-09-23T01:32:27.619Z,4.43
2023-09-23T01:34:55.264Z,6.20
2023-09-23T01:37:24.454Z,5.73
2023-09-23T01:39:51.648Z,3.80
2023-09-23T01:42:19.632Z,3.90
2023-09-23T01:44:47.178Z,4.00
2023-09-23T01:47:17.421Z,3.93
2023-09-23T01:49:44.846Z,4.00
2023-09-23T01:52:12.189Z,4.50
2023-09-23T01:54:39.435Z,3.90
2023-09-23T01:57:06.677Z,4.20
2023-09-23T01:59:34.049Z,4.10
2023-09-23T02:02:05.695Z,4.47
2023-09-23T02:04:37.062Z,4.40
2023-09-23T02:07:05.602Z,5.57
2023-09-23T02:09:35.888Z,6.40
2023-09-23T02:12:03.384Z,6.10
2023-09-23T02:14:31.317Z,5.30
2023-09-23T02:16:59.109Z,6.70
2023-09-23T02:19:27.218Z,7.50
2023-09-23T02:21:54.823Z,5.63
2023-09-23T02:24:22.112Z,5.27
2023-09-23T02:26:50.186Z,5.93
2023-09-23T02:29:18.029Z,5.37
2023-09-23T02:31:50.508Z,6.27
2023-09-23T02:34:21.515Z,5.10
2023-09-23T02:36:52.036Z,5.03
2023-09-23T02:39:23.045Z,4.67
2023-09-23T02:41:52.036Z,4.53
2023-09-23T02:44:21.381Z,5.30
2023-09-23T02:46:49.425Z,4.50
2023-09-23T02:49:17.783Z,4.53
2023-09-23T02:51:45.893Z,7.00
2023-09-23T02:54:16.761Z,4.70
2023-09-23T02:56:43.953Z,4.00
2023-09-23T02:59:31.834Z,4.87
2023-09-23T03:01:59.546Z,4.17
2023-09-23T03:04:29.551Z,4.40
2023-09-23T03:07:00.972Z,5.93
2023-09-23T03:09:33.607Z,4.30
2023-09-23T03:12:02.129Z,4.20
2023-09-23T03:14:37.977Z,4.67
2023-09-23T03:17:05.838Z,4.67
2023-09-23T03:19:34.004Z,5.17
2023-09-23T03:22:02.115Z,4.87
2023-09-23T03:24:31.191Z,5.40
2023-09-23T03:27:01.905Z,4.93
2023-09-23T03:29:30.305Z,6.93
2023-09-23T03:31:59.670Z,6.30
2023-09-23T03:34:30.748Z,6.87
2023-09-23T03:36:59.646Z,7.47
2023-09-23T03:39:38.560Z,6.07
2023-09-23T03:42:08.253Z,6.87
2023-09-23T03:44:36.878Z,6.50
2023-09-23T03:47:04.595Z,8.00
2023-09-23T03:49:32.304Z,6.07
2023-09-23T03:51:59.689Z,6.07
2023-09-23T03:54:29.198Z,6.37
2023-09-23T03:56:57.344Z,5.87
2023-09-23T03:59:24.676Z,5.93
2023-09-23T04:01:52.439Z,6.00
2023-09-23T04:04:19.834Z,5.70
2023-09-23T04:06:47.029Z,5.80
2023-09-23T04:09:14.587Z,7.10
2023-09-23T04:11:41.913Z,5.20
2023-09-23T04:14:09.312Z,4.97
2023-09-23T04:16:36.628Z,4.97
2023-09-23T04:19:04.798Z,5.37
2023-09-23T04:21:32.712Z,5.33
2023-09-23T04:24:01.911Z,5.20
2023-09-23T04:26:29.314Z,5.83
2023-09-23T04:28:57.209Z,6.40
2023-09-23T04:31:26.050Z,6.13
2023-09-23T04:33:53.421Z,6.33
2023-09-23T04:36:22.452Z,6.87
2023-09-23T04:38:49.932Z,7.70
2023-09-23T04:41:17.631Z,6.27
2023-09-23T04:43:45.542Z,6.93
2023-09-23T04:46:16.216Z,6.67
2023-09-23T04:48:44.506Z,6.43
2023-09-23T04:51:11.990Z,6.37
2023-09-23T04:53:39.307Z,8.37
2023-09-23T04:56:18.011Z,5.83
2023-09-23T04:58:46.185Z,8.37
2023-09-23T05:01:15.423Z,6.63
2023-09-23T05:03:43.601Z,6.03
2023-09-23T05:06:11.971Z,5.60
2023-09-23T05:08:39.363Z,8.20
2023-09-23T05:11:08.370Z,5.67
2023-09-23T05:13:38.547Z,5.47
2023-09-23T05:16:05.895Z,7.03
2023-09-23T05:18:33.950Z,5.27
2023-09-23T05:21:01.217Z,5.57
2023-09-23T05:23:29.732Z,4.97
2023-09-23T05:25:59.396Z,5.20
2023-09-23T05:28:28.026Z,6.70
2023-09-23T05:30:55.351Z,5.30
2023-09-23T05:33:22.721Z,4.80
2023-09-23T05:35:50.291Z,5.00
2023-09-23T05:38:17.654Z,5.10
2023-09-23T05:40:44.983Z,6.27
2023-09-23T05:43:12.515Z,6.70
2023-09-23T05:45:39.787Z,5.10
2023-09-23T05:48:07.655Z,4.50
2023-09-23T05:50:35.215Z,4.80
2023-09-23T05:53:02.824Z,4.80
2023-09-23T05:55:32.358Z,4.60
2023-09-23T05:57:59.726Z,5.50
2023-09-23T06:00:27.075Z,5.80
2023-09-23T06:02:54.522Z,5.17
2023-09-23T06:05:22.334Z,6.27
2023-09-23T06:07:50.415Z,5.97
2023-09-23T06:10:20.179Z,4.80
2023-09-23T06:12:47.497Z,6.37
2023-09-23T06:15:14.823Z,5.40
2023-09-23T06:17:42.157Z,5.77
2023-09-23T06:20:10.897Z,5.57
2023-09-23T06:22:38.362Z,7.47
2023-09-23T06:25:06.122Z,7.90
2023-09-23T06:27:37.216Z,7.20
2023-09-23T06:30:06.680Z,7.67
2023-09-23T06:32:36.902Z,9.60
2023-09-23T06:35:04.734Z,8.33
2023-09-23T06:37:38.707Z,7.87
2023-09-23T06:40:07.101Z,8.07
2023-09-23T06:42:37.388Z,8.93
2023-09-23T06:45:14.248Z,10.23
2023-09-23T06:47:44.324Z,8.93
2023-09-23T06:50:11.789Z,9.77
2023-09-23T06:52:38.956Z,11.57
2023-09-23T06:55:06.656Z,10.10
2023-09-23T06:57:36.216Z,11.03
2023-09-23T07:00:08.149Z,11.27
2023-09-23T07:02:36.188Z,10.80
2023-09-23T07:05:03.775Z,11.17
2023-09-23T07:07:33.732Z,10.67
2023-09-23T07:10:05.527Z,11.30
2023-09-23T07:12:32.780Z,12.00
2023-09-23T07:15:02.094Z,11.07
2023-09-23T07:17:29.667Z,10.97
2023-09-23T07:19:56.948Z,10.73
2023-09-23T07:22:26.902Z,10.47
2023-09-23T07:24:54.548Z,10.30
2023-09-23T07:27:21.739Z,10.67
2023-09-23T07:29:52.114Z,10.20
2023-09-23T07:32:22.035Z,10.03
2023-09-23T07:34:49.369Z,10.30
2023-09-23T07:37:16.640Z,9.60
2023-09-23T07:39:45.896Z,9.63
2023-09-23T07:42:13.591Z,9.97
2023-09-23T07:44:40.838Z,9.40
2023-09-23T07:47:08.547Z,9.70
2023-09-23T07:49:36.368Z,10.17
2023-09-23T07:52:03.683Z,9.17
2023-09-23T07:54:30.858Z,9.40
2023-09-23T07:56:57.993Z,9.10
2023-09-23T07:59:25.172Z,8.97
2023-09-23T08:01:53.688Z,8.73
2023-09-23T08:04:20.890Z,8.17
2023-09-23T08:06:48.262Z,9.40
2023-09-23T08:09:15.897Z,8.47
2023-09-23T08:11:43.195Z,8.63
2023-09-23T08:14:10.425Z,8.10
2023-09-23T08:16:37.851Z,8.17
2023-09-23T08:19:05.260Z,8.40
2023-09-23T08:21:32.513Z,8.70
2023-09-23T08:23:59.646Z,7.00
2023-09-23T08:26:27.127Z,7.80
2023-09-23T08:28:54.896Z,7.77
2023-09-23T08:31:22.324Z,8.17
2023-09-23T08:33:49.754Z,7.67
2023-09-23T08:36:16.908Z,8.10
2023-09-23T08:38:45.184Z,8.47
2023-09-23T08:41:16.496Z,8.67
2023-09-23T08:43:47.930Z,8.67
2023-09-23T08:46:19.415Z,8.00
2023-09-23T08:48:47.069Z,7.73
2023-09-23T08:51:20.464Z,7.90
2023-09-23T08:53:49.534Z,6.73
2023-09-23T08:56:17.102Z,7.03
2023-09-23T08:58:45.198Z,9.07
2023-09-23T09:01:12.699Z,7.40
2023-09-23T09:03:39.989Z,7.57
2023-09-23T09:06:20.913Z,7.87
2023-09-23T09:08:48.295Z,7.77
2023-09-23T09:11:25.461Z,7.80
2023-09-23T09:13:55.333Z,7.87
2023-09-23T09:16:22.696Z,7.00
2023-09-23T09:18:53.050Z,6.87
2023-09-23T09:21:21.417Z,5.47
2023-09-23T09:23:58.005Z,5.03
2023-09-23T09:26:25.515Z,5.10
2023-09-23T09:28:53.291Z,4.43
2023-09-23T09:31:21.530Z,5.63
2023-09-23T09:33:49.468Z,4.77
2023-09-23T09:36:26.230Z,4.23
2023-09-23T09:39:22.027Z,4.13
2023-09-23T09:41:54.755Z,4.30
2023-09-23T09:44:23.945Z,4.70
2023-09-23T09:46:55.909Z,4.43
2023-09-23T09:49:25.016Z,4.63
2023-09-23T09:51:53.406Z,4.50
2023-09-23T09:54:26.371Z,4.13
2023-09-23T09:56:57.012Z,4.47
2023-09-23T09:59:34.845Z,4.30
2023-09-23T10:02:05.331Z,5.90
2023-09-23T10:04:33.930Z,5.30
2023-09-23T10:07:10.072Z,4.77
2023-09-23T10:10:02.854Z,5.87
2023-09-23T10:12:37.032Z,4.90
2023-09-23T10:15:05.480Z,5.27
2023-09-23T10:17:42.659Z,6.20
2023-09-23T10:20:33.803Z,5.93
2023-09-23T10:23:01.246Z,4.73
2023-09-23T10:25:55.759Z,5.70
2023-09-23T10:28:29.426Z,5.37
2023-09-23T10:31:05.545Z,7.03
2023-09-23T10:33:36.084Z,5.33
2023-09-23T10:36:05.897Z,6.20
2023-09-23T10:38:38.964Z,4.80
2023-09-23T10:41:06.485Z,4.90
2023-09-23T10:43:33.786Z,4.47
2023-09-23T10:46:04.241Z,5.57
2023-09-23T10:48:31.632Z,4.87
2023-09-23T10:51:01.882Z,5.70
2023-09-23T10:53:29.673Z,5.47
2023-09-23T10:55:59.215Z,5.20
2023-09-23T10:58:26.599Z,5.97
2023-09-23T11:00:54.123Z,5.90
2023-09-23T11:03:22.996Z,5.57
2023-09-23T11:05:50.652Z,6.07
2023-09-23T11:08:21.118Z,4.60
2023-09-23T11:10:50.596Z,4.20
2023-09-23T11:13:18.119Z,3.90
2023-09-23T11:15:49.739Z,4.60
2023-09-23T11:18:18.525Z,3.90
2023-09-23T11:20:49.640Z,3.63
2023-09-23T11:23:19.750Z,4.03
2023-09-23T11:25:48.314Z,4.37
2023-09-23T11:28:21.697Z,3.10
2023-09-23T11:30:51.738Z,3.57
2023-09-23T11:33:20.112Z,2.37
2023-09-23T11:35:47.377Z,2.97
2023-09-23T11:38:15.482Z,5.30
2023-09-23T11:40:43.012Z,2.10
2023-09-23T11:43:10.306Z,2.27
2023-09-23T11:45:37.527Z,2.30
2023-09-23T11:48:07.548Z,2.37
2023-09-23T11:50:36.655Z,3.70
2023-09-23T11:53:04.725Z,3.07
2023-09-23T11:55:33.747Z,2.30
2023-09-23T11:58:01.787Z,2.60
2023-09-23T12:00:31.749Z,1.40
2023-09-23T12:02:59.110Z,1.63
2023-09-23T12:05:30.724Z,1.70
2023-09-23T12:08:01.995Z,1.30
2023-09-23T12:10:30.892Z,2.07
2023-09-23T12:13:04.334Z,1.50
2023-09-23T12:15:35.228Z,2.70
2023-09-23T12:18:02.998Z,1.93
2023-09-23T12:20:30.488Z,1.23
2023-09-23T12:23:00.102Z,1.37
2023-09-23T12:25:28.029Z,2.10
2023-09-23T12:27:55.512Z,2.47
2023-09-23T12:30:22.969Z,1.27
2023-09-23T12:32:50.387Z,1.83
2023-09-23T12:35:18.113Z,1.23
2023-09-23T12:37:45.597Z,1.93
2023-09-23T12:40:13.596Z,1.10
2023-09-23T12:42:41.109Z,1.27
2023-09-23T12:45:08.847Z,1.93
2023-09-23T12:50:08.354Z,1.23
2023-09-23T12:52:38.165Z,1.53
2023-09-23T12:55:06.273Z,1.17
2023-09-23T12:57:36.946Z,1.30
2023-09-23T13:00:05.419Z,1.10
2023-09-23T13:02:33.011Z,3.43
2023-09-23T13:05:00.545Z,1.37
2023-09-23T13:07:28.370Z,2.40
2023-09-23T13:09:55.704Z,1.70
2023-09-23T13:12:23.587Z,0.90
2023-09-23T13:14:51.308Z,1.10
2023-09-23T13:17:18.729Z,2.30
2023-09-23T13:19:46.360Z,2.00
2023-09-23T13:22:13.813Z,1.10
2023-09-23T13:24:41.262Z,1.63
2023-09-23T13:27:08.623Z,1.17
2023-09-23T13:29:36.125Z,0.90
2023-09-23T13:32:03.718Z,1.47
2023-09-23T13:34:31.224Z,2.63
2023-09-23T13:36:58.688Z,1.13
2023-09-23T13:39:26.145Z,1.27
2023-09-23T13:41:55.046Z,1.10
2023-09-23T13:44:25.846Z,3.43
2023-09-23T13:46:53.526Z,2.47
2023-09-23T13:49:21.103Z,3.80
2023-09-23T13:51:48.649Z,1.03
2023-09-23T13:54:15.975Z,3.07
2023-09-23T13:56:43.451Z,2.07
2023-09-23T13:59:11.542Z,2.47
2023-09-23T14:01:39.065Z,3.43
2023-09-23T14:04:07.999Z,2.73
2023-09-23T14:06:35.410Z,1.90
2023-09-23T14:09:02.828Z,1.53
2023-09-23T14:11:30.300Z,1.33
2023-09-23T14:13:58.572Z,1.17
2023-09-23T14:16:26.085Z,1.90
2023-09-23T14:18:53.479Z,3.07
2023-09-23T14:21:20.922Z,1.20
2023-09-23T14:23:48.369Z,2.37
2023-09-23T14:26:15.813Z,1.90
2023-09-23T14:28:44.115Z,1.40
2023-09-23T14:31:12.844Z,1.97
2023-09-23T14:33:40.237Z,1.60
2023-09-23T14:36:07.568Z,1.20
2023-09-23T14:38:35.006Z,1.37
2023-09-23T14:41:02.469Z,1.93
2023-09-23T14:43:29.898Z,1.70
2023-09-23T14:45:57.428Z,3.23
2023-09-23T14:48:24.976Z,1.10
2023-09-23T14:50:52.975Z,2.40
2023-09-23T14:53:21.547Z,1.20
2023-09-23T14:55:49.225Z,3.30
2023-09-23T14:58:16.657Z,4.67
2023-09-23T15:00:45.326Z,3.57
2023-09-23T15:03:12.841Z,2.17
2023-09-23T15:05:40.381Z,2.53
2023-09-23T15:08:07.999Z,2.33
2023-09-23T15:10:36.445Z,2.97
2023-09-23T15:13:03.998Z,4.63
2023-09-23T15:15:32.122Z,2.73
2023-09-23T15:17:59.712Z,2.73
2023-09-23T15:20:27.457Z,1.10
2023-09-23T15:22:55.048Z,3.43
2023-09-23T15:25:22.463Z,1.30
2023-09-23T15:27:49.810Z,1.60
2023-09-23T15:30:17.185Z,2.07
2023-09-23T15:32:45.532Z,3.07
2023-09-23T15:35:13.098Z,1.70
2023-09-23T15:37:40.629Z,3.03
2023-09-23T15:40:10.944Z,1.30
2023-09-23T15:42:38.624Z,2.23
2023-09-23T15:45:07.088Z,2.50
2023-09-23T15:47:34.557Z,2.67
2023-09-23T15:50:01.988Z,2.53
2023-09-23T15:52:29.423Z,2.20
2023-09-23T15:54:59.303Z,1.77
2023-09-23T15:57:27.773Z,1.70
2023-09-23T15:59:55.256Z,2.03
2023-09-23T16:02:22.801Z,2.80
2023-09-23T16:04:50.598Z,4.47
2023-09-23T16:07:18.057Z,1.67
2023-09-23T16:09:45.525Z,1.53
2023-09-23T16:12:12.979Z,1.70
2023-09-23T16:14:40.587Z,3.03
2023-09-23T16:17:08.260Z,2.67
2023-09-23T16:19:37.023Z,3.97
2023-09-23T16:22:04.724Z,2.03
2023-09-23T16:24:32.148Z,2.23
2023-09-23T16:26:59.643Z,2.10
2023-09-23T16:29:27.388Z,2.17
2023-09-23T16:31:54.950Z,2.23
2023-09-23T16:34:22.361Z,2.63
2023-09-23T16:36:50.524Z,2.87
2023-09-23T16:39:18.750Z,2.10
2023-09-23T16:41:46.391Z,4.43
2023-09-23T16:44:13.851Z,4.97
2023-09-23T16:46:41.426Z,5.37
2023-09-23T16:49:08.814Z,4.90
2023-09-23T16:51:36.318Z,2.87
2023-09-23T16:54:04.329Z,3.40
2023-09-23T16:56:32.115Z,3.03
2023-09-23T16:58:59.646Z,4.73
2023-09-23T17:01:27.303Z,2.83
2023-09-23T17:03:55.228Z,3.67
2023-09-23T17:06:23.398Z,3.07
2023-09-23T17:08:50.952Z,3.70
2023-09-23T17:11:18.461Z,3.47
2023-09-23T17:13:45.834Z,3.50
2023-09-23T17:16:13.387Z,5.17
2023-09-23T17:18:41.028Z,5.07
2023-09-23T17:21:08.454Z,3.90
2023-09-23T17:23:35.961Z,4.63
2023-09-23T17:26:06.376Z,6.17
2023-09-23T17:28:35.002Z,4.17
2023-09-23T17:31:02.438Z,3.83
2023-09-23T17:33:30.144Z,3.67
2023-09-23T17:36:00.883Z,4.57
2023-09-23T17:38:28.253Z,3.53
2023-09-23T17:40:55.712Z,3.63
2023-09-23T17:43:23.147Z,3.53
2023-09-23T17:45:50.549Z,3.60
2023-09-23T17:48:18.127Z,3.87
2023-09-23T17:50:45.677Z,3.70
2023-09-23T17:53:13.142Z,5.73
2023-09-23T17:55:40.757Z,3.47
2023-09-23T17:58:09.607Z,4.50
2023-09-23T18:00:37.055Z,4.13
2023-09-23T18:03:05.620Z,3.30
2023-09-23T18:05:33.396Z,4.40
2023-09-23T18:08:00.920Z,3.73
2023-09-23T18:10:28.374Z,3.80
2023-09-23T18:12:55.805Z,3.67
2023-09-23T18:15:23.332Z,3.57
2023-09-23T18:17:50.987Z,4.10
2023-09-23T18:20:25.263Z,5.10
2023-09-23T18:22:54.551Z,4.10
2023-09-23T18:25:22.055Z,5.70
2023-09-23T18:27:49.429Z,3.80
2023-09-23T18:30:17.275Z,3.90
2023-09-23T18:32:45.729Z,4.70
2023-09-23T18:35:13.788Z,4.90
2023-09-23T18:37:41.365Z,5.37
2023-09-23T18:40:11.084Z,4.57
2023-09-23T18:42:38.484Z,5.03
2023-09-23T18:45:06.888Z,3.57
2023-09-23T18:47:34.439Z,5.90
2023-09-23T18:50:02.118Z,3.70
2023-09-23T18:52:29.712Z,4.87
2023-09-23T18:54:57.236Z,4.10
2023-09-23T18:57:24.896Z,6.93
2023-09-23T18:59:52.358Z,3.70
2023-09-23T19:02:20.137Z,4.77
2023-09-23T19:04:47.568Z,3.50
2023-09-23T19:07:15.175Z,4.57
2023-09-23T19:09:42.774Z,3.60
2023-09-23T19:12:10.155Z,3.10
2023-09-23T19:14:38.748Z,6.17
2023-09-23T19:17:06.373Z,4.53
2023-09-23T19:19:33.869Z,3.43
2023-09-23T19:22:01.755Z,3.83
2023-09-23T19:24:29.574Z,2.83
2023-09-23T19:26:57.728Z,4.57
2023-09-23T19:29:25.835Z,4.40
2023-09-23T19:31:53.594Z,4.53
2023-09-23T19:34:21.092Z,3.57
2023-09-23T19:36:48.473Z,2.70
2023-09-23T19:39:15.977Z,4.37
2023-09-23T19:41:43.361Z,4.57
2023-09-23T19:44:11.057Z,4.80
2023-09-23T19:46:39.258Z,7.23
2023-09-23T19:49:07.063Z,4.73
2023-09-23T19:51:34.743Z,6.00
2023-09-23T19:54:02.092Z,4.23
2023-09-23T19:56:30.007Z,7.50
2023-09-23T19:58:57.389Z,5.90
2023-09-23T20:01:24.946Z,5.50
2023-09-23T20:03:53.209Z,4.83
2023-09-23T20:06:22.002Z,6.33
2023-09-23T20:08:49.497Z,5.40
2023-09-23T20:11:19.113Z,4.00
2023-09-23T20:13:47.531Z,4.70
2023-09-23T20:16:15.178Z,5.07
2023-09-23T20:18:42.978Z,8.47
2023-09-23T20:21:37.381Z,5.77
2023-09-23T20:24:20.056Z,5.23
2023-09-23T20:26:50.517Z,4.27
2023-09-23T20:29:18.015Z,6.70
2023-09-23T20:31:49.966Z,3.87
2023-09-23T20:34:18.044Z,4.70
2023-09-23T20:36:45.883Z,4.07
2023-09-23T20:39:14.626Z,5.17
2023-09-23T20:41:42.154Z,4.57
2023-09-23T20:44:09.749Z,5.17
2023-09-23T20:46:37.331Z,5.97
2023-09-23T20:49:04.909Z,4.47
2023-09-23T20:51:34.704Z,6.27
2023-09-23T20:54:02.571Z,4.70
2023-09-23T20:56:30.285Z,4.30
2023-09-23T20:58:59.004Z,6.17
2023-09-23T21:01:29.952Z,3.77
2023-09-23T21:03:57.789Z,5.47
2023-09-23T21:06:25.514Z,4.07
2023-09-23T21:08:53.342Z,5.80
2023-09-23T21:11:20.810Z,4.00
2023-09-23T21:13:48.481Z,3.57
2023-09-23T21:16:16.305Z,4.23
2023-09-23T21:18:45.300Z,3.67
2023-09-23T21:21:13.250Z,4.83
2023-09-23T21:23:41.868Z,3.90
2023-09-23T21:26:09.618Z,6.27
2023-09-23T21:28:37.427Z,5.10
2023-09-23T21:31:05.135Z,3.90
2023-09-23T21:33:33.126Z,5.37
2023-09-23T21:36:03.575Z,4.43
2023-09-23T21:38:33.974Z,3.40
2023-09-23T21:41:01.666Z,3.60
2023-09-23T21:43:29.487Z,3.50
2023-09-23T21:45:57.559Z,4.83
2023-09-23T21:48:25.855Z,4.40
2023-09-23T21:50:59.171Z,4.77
2023-09-23T21:53:28.512Z,4.77
2023-09-23T21:56:02.634Z,4.87
2023-09-23T21:58:30.357Z,4.60
2023-09-23T22:01:00.533Z,3.97
2023-09-23T22:03:32.109Z,5.10
2023-09-23T22:06:00.149Z,4.63
2023-09-23T22:08:29.016Z,4.10
2023-09-23T22:10:56.525Z,4.00
2023-09-23T22:13:24.403Z,4.57
2023-09-23T22:15:51.813Z,5.93
2023-09-23T22:18:21.121Z,5.80
2023-09-23T22:20:49.894Z,4.50
2023-09-23T22:23:18.115Z,4.33
2023-09-23T22:25:46.653Z,4.43
2023-09-23T22:28:14.060Z,5.43
2023-09-23T22:30:41.623Z,5.03
2023-09-23T22:33:09.599Z,5.50
2023-09-23T22:35:37.929Z,7.53
2023-09-23T22:38:05.931Z,7.63
2023-09-23T22:40:33.323Z,7.83
2023-09-23T22:43:01.067Z,8.43
2023-09-23T22:45:38.670Z,6.63
2023-09-23T22:48:08.634Z,7.07
2023-09-23T22:50:36.535Z,6.87
2023-09-23T22:53:05.998Z,7.73
2023-09-23T22:55:34.000Z,7.67
2023-09-23T22:58:01.521Z,7.10
2023-09-23T23:00:29.135Z,6.90
2023-09-23T23:02:57.977Z,8.47
2023-09-23T23:05:27.086Z,9.87
2023-09-23T23:07:57.288Z,9.30
2023-09-23T23:10:25.555Z,8.67
2023-09-23T23:12:52.936Z,8.10
2023-09-23T23:15:20.633Z,8.87
2023-09-23T23:17:52.061Z,8.00
2023-09-23T23:20:26.344Z,7.87
2023-09-23T23:22:56.049Z,8.27
2023-09-23T23:25:27.067Z,9.27
2023-09-23T23:27:54.488Z,9.07
2023-09-23T23:30:22.235Z,8.20
2023-09-23T23:32:50.528Z,10.03
2023-09-23T23:35:24.171Z,9.83
2023-09-23T23:37:52.556Z,10.57
2023-09-23T23:40:21.414Z,9.80
2023-09-23T23:42:50.515Z,8.10
2023-09-23T23:45:20.694Z,7.37
2023-09-23T23:47:53.929Z,10.47
2023-09-23T23:50:21.666Z,8.43
2023-09-23T23:52:50.279Z,9.43
2023-09-23T23:55:17.972Z,9.20
2023-09-23T23:57:49.842Z,9.87
